Time;durP1;ratioP1;P1;durP2;ratioP2;P2;SDS_P1;SDS_P2;PMS_P1;PMS_P2;Temp;Humidity;BMP_temperature;BMP_pressure;BME280_temperature;BME280_humidity;BME280_pressure;Samples;Min_cycle;Max_cycle;Signal;HPM_P1;HPM_P2
2021/06/16 00:01:59;;;;;;;13.88;5.07;;;;;;;;;;5116080;28;20035;-66
2021/06/16 00:04:24;;;;;;;13.32;5.70;;;;;;;;;;5115773;28;20031;-67
2021/06/16 00:06:51;;;;;;;13.98;5.53;;;;;;;;;;5116334;28;20020;-67
2021/06/16 00:09:16;;;;;;;13.77;5.57;;;;;;;;;;5116040;28;20032;-68
2021/06/16 00:11:41;;;;;;;18.20;5.85;;;;;;;;;;5116139;28;20050;-67
2021/06/16 00:14:15;;;;;;;11.93;5.50;;;;;;;;;;5115228;28;20031;-67
2021/06/16 00:16:42;;;;;;;14.65;5.38;;;;;;;;;;5116066;28;20073;-66
2021/06/16 00:19:07;;;;;;;17.40;6.32;;;;;;;;;;5116311;28;20054;-67
2021/06/16 00:21:33;;;;;;;19.27;7.20;;;;;;;;;;5116201;28;20030;-66
2021/06/16 00:23:58;;;;;;;17.77;6.20;;;;;;;;;;5114478;28;20019;-67
2021/06/16 00:26:23;;;;;;;17.63;5.72;;;;;;;;;;5116004;28;20080;-66
2021/06/16 00:28:49;;;;;;;15.05;5.72;;;;;;;;;;5113492;28;20012;-67
2021/06/16 00:31:14;;;;;;;14.68;6.50;;;;;;;;;;5115792;28;20110;-66
2021/06/16 00:33:39;;;;;;;10.00;5.50;;;;;;;;;;5114949;28;20028;-67
2021/06/16 00:36:04;;;;;;;15.70;6.20;;;;;;;;;;5115303;28;20054;-66
2021/06/16 00:38:30;;;;;;;18.63;7.05;;;;;;;;;;5115610;28;20032;-67
2021/06/16 00:40:56;;;;;;;14.23;6.55;;;;;;;;;;5115621;28;20043;-67
2021/06/16 00:43:21;;;;;;;13.93;7.05;;;;;;;;;;5105810;28;20011;-67
2021/06/16 00:45:46;;;;;;;10.40;6.75;;;;;;;;;;5115399;28;20028;-66
2021/06/16 00:48:12;;;;;;;15.07;6.72;;;;;;;;;;5115093;28;20043;-67
2021/06/16 00:50:38;;;;;;;15.35;6.93;;;;;;;;;;5115933;28;20038;-67
2021/06/16 00:53:03;;;;;;;10.48;5.97;;;;;;;;;;5113865;28;20468;-67
2021/06/16 00:55:29;;;;;;;17.58;6.47;;;;;;;;;;5115289;28;20104;-66
2021/06/16 00:57:55;;;;;;;17.05;6.70;;;;;;;;;;5114985;28;20065;-67
2021/06/16 01:00:22;;;;;;;16.65;6.70;;;;;;;;;;5115152;28;20409;-67
2021/06/16 01:03:00;;;;;;;20.85;7.05;;;;;;;;;;5115084;28;20038;-66
2021/06/16 01:05:32;;;;;;;17.98;6.78;;;;;;;;;;5094900;28;20032;-66
2021/06/16 01:07:58;;;;;;;12.02;6.30;;;;;;;;;;5097743;28;20375;-67
2021/06/16 01:10:25;;;;;;;17.88;6.63;;;;;;;;;;5114769;28;20048;-67
2021/06/16 01:13:04;;;;;;;12.15;6.60;;;;;;;;;;5114204;28;20447;-66
2021/06/16 01:15:34;;;;;;;17.73;7.53;;;;;;;;;;5114558;28;20391;-67
2021/06/16 01:18:01;;;;;;;15.10;6.63;;;;;;;;;;5114610;28;20031;-67
2021/06/16 01:20:29;;;;;;;12.30;6.50;;;;;;;;;;5114813;28;20083;-66
2021/06/16 01:23:00;;;;;;;15.27;6.95;;;;;;;;;;5113876;28;20016;-66
2021/06/16 01:25:45;;;;;;;13.43;6.07;;;;;;;;;;5114291;28;20027;-67
2021/06/16 01:28:11;;;;;;;16.57;7.43;;;;;;;;;;5113918;28;20082;-66
2021/06/16 01:30:38;;;;;;;17.77;6.60;;;;;;;;;;5114298;28;20066;-67
2021/06/16 01:33:07;;;;;;;13.65;6.78;;;;;;;;;;5114306;28;20039;-67
2021/06/16 01:35:35;;;;;;;12.80;6.47;;;;;;;;;;5114221;28;20042;-67
2021/06/16 01:38:01;;;;;;;13.52;6.07;;;;;;;;;;5114216;28;20104;-66
2021/06/16 01:40:27;;;;;;;17.30;6.30;;;;;;;;;;5114291;28;20024;-67
2021/06/16 01:42:54;;;;;;;13.93;6.40;;;;;;;;;;5114096;28;20468;-67
2021/06/16 01:45:20;;;;;;;19.05;7.68;;;;;;;;;;5113507;28;20029;-66
2021/06/16 01:47:47;;;;;;;12.85;5.95;;;;;;;;;;5113771;28;20035;-67
2021/06/16 01:50:14;;;;;;;17.80;6.68;;;;;;;;;;5114651;28;20027;-66
2021/06/16 01:52:40;;;;;;;17.05;6.28;;;;;;;;;;5113678;28;20356;-67
2021/06/16 01:55:06;;;;;;;12.23;6.38;;;;;;;;;;5113578;28;20065;-67
2021/06/16 01:57:33;;;;;;;15.70;6.30;;;;;;;;;;5114269;28;20016;-67
2021/06/16 02:00:00;;;;;;;13.00;6.05;;;;;;;;;;5113073;28;20477;-66
2021/06/16 02:02:25;;;;;;;15.13;6.82;;;;;;;;;;5113568;28;20459;-67
2021/06/16 02:04:50;;;;;;;13.73;6.72;;;;;;;;;;5113323;28;20111;-65
2021/06/16 02:07:18;;;;;;;15.13;7.15;;;;;;;;;;5113675;28;20126;-66
2021/06/16 02:09:45;;;;;;;15.43;6.30;;;;;;;;;;5113416;28;20035;-67
2021/06/16 02:12:11;;;;;;;14.18;6.35;;;;;;;;;;5113768;28;20407;-66
2021/06/16 02:14:39;;;;;;;15.30;6.60;;;;;;;;;;5113798;28;20023;-68
2021/06/16 02:17:07;;;;;;;16.63;6.78;;;;;;;;;;5113832;28;20067;-66
2021/06/16 02:19:33;;;;;;;13.32;7.03;;;;;;;;;;5113621;28;20028;-67
2021/06/16 02:21:59;;;;;;;16.30;6.88;;;;;;;;;;5113701;28;20030;-67
2021/06/16 02:24:25;;;;;;;18.50;7.53;;;;;;;;;;5113393;28;20031;-67
2021/06/16 02:26:51;;;;;;;15.40;7.32;;;;;;;;;;5113215;28;20031;-67
2021/06/16 02:29:18;;;;;;;15.30;7.00;;;;;;;;;;5113118;28;20024;-66
2021/06/16 02:31:44;;;;;;;16.92;7.50;;;;;;;;;;5113586;28;20035;-67
2021/06/16 02:34:10;;;;;;;14.73;7.25;;;;;;;;;;5113204;28;20036;-67
2021/06/16 02:36:46;;;;;;;17.67;8.13;;;;;;;;;;5113476;28;20555;-67
2021/06/16 02:39:13;;;;;;;18.10;7.75;;;;;;;;;;5113319;28;20064;-66
2021/06/16 02:41:41;;;;;;;17.02;7.78;;;;;;;;;;5113516;28;20024;-67
2021/06/16 02:44:06;;;;;;;13.57;6.97;;;;;;;;;;5113352;28;20032;-67
2021/06/16 02:46:34;;;;;;;17.60;8.07;;;;;;;;;;5095091;28;20034;-66
2021/06/16 02:49:00;;;;;;;18.95;7.40;;;;;;;;;;5113128;28;20035;-67
2021/06/16 02:51:25;;;;;;;16.15;7.90;;;;;;;;;;5113427;28;20399;-67
2021/06/16 02:53:51;;;;;;;16.15;6.75;;;;;;;;;;5112912;28;20027;-66
2021/06/16 02:56:17;;;;;;;15.52;7.80;;;;;;;;;;5112922;28;20043;-66
2021/06/16 02:58:44;;;;;;;20.23;8.25;;;;;;;;;;5112624;28;20020;-67
2021/06/16 03:01:13;;;;;;;21.10;8.13;;;;;;;;;;5113373;28;20080;-67
2021/06/16 03:03:39;;;;;;;19.27;8.70;;;;;;;;;;5113067;28;20035;-67
2021/06/16 03:06:05;;;;;;;20.50;9.65;;;;;;;;;;5113213;28;20491;-67
2021/06/16 03:08:31;;;;;;;20.70;8.10;;;;;;;;;;5112895;28;20031;-67
2021/06/16 03:10:57;;;;;;;15.98;7.75;;;;;;;;;;5113272;28;20040;-67
2021/06/16 03:13:23;;;;;;;17.45;7.97;;;;;;;;;;5112800;28;20059;-67
2021/06/16 03:15:49;;;;;;;21.48;8.00;;;;;;;;;;5113529;28;20020;-67
2021/06/16 03:18:15;;;;;;;20.60;9.13;;;;;;;;;;5116143;28;20023;-66
2021/06/16 03:20:41;;;;;;;23.27;8.20;;;;;;;;;;5116442;28;20032;-66
2021/06/16 03:23:07;;;;;;;23.65;9.60;;;;;;;;;;5116872;28;20015;-65
2021/06/16 03:25:33;;;;;;;18.38;8.02;;;;;;;;;;5116864;28;20024;-67
2021/06/16 03:27:59;;;;;;;19.80;7.70;;;;;;;;;;5116115;28;20043;-66
2021/06/16 03:30:24;;;;;;;22.17;8.40;;;;;;;;;;5116817;28;20069;-67
2021/06/16 03:32:51;;;;;;;20.60;8.73;;;;;;;;;;5116592;28;20080;-65
2021/06/16 03:35:17;;;;;;;24.42;8.30;;;;;;;;;;5116721;28;20036;-66
2021/06/16 03:37:42;;;;;;;21.42;9.23;;;;;;;;;;5116710;28;20035;-67
2021/06/16 03:40:08;;;;;;;21.70;8.70;;;;;;;;;;5116507;28;20125;-67
2021/06/16 03:42:35;;;;;;;26.30;7.90;;;;;;;;;;5116988;28;20032;-66
2021/06/16 03:45:02;;;;;;;24.48;9.93;;;;;;;;;;5116159;28;20462;-67
2021/06/16 03:47:28;;;;;;;25.25;8.80;;;;;;;;;;5116564;28;20083;-67
2021/06/16 03:49:55;;;;;;;20.48;8.75;;;;;;;;;;5116366;28;20510;-66
2021/06/16 03:52:21;;;;;;;23.48;8.68;;;;;;;;;;5115949;28;20527;-66
2021/06/16 03:54:47;;;;;;;24.08;8.85;;;;;;;;;;5116115;28;20073;-67
2021/06/16 03:57:12;;;;;;;21.00;7.72;;;;;;;;;;5116247;28;20044;-66
2021/06/16 03:59:38;;;;;;;18.15;8.65;;;;;;;;;;5116505;28;20065;-66
2021/06/16 04:02:03;;;;;;;23.42;8.75;;;;;;;;;;5116074;28;20434;-66
2021/06/16 04:04:31;;;;;;;21.92;9.00;;;;;;;;;;5115913;28;20488;-66
2021/06/16 04:06:56;;;;;;;25.08;8.40;;;;;;;;;;5116146;28;20056;-66
2021/06/16 04:09:22;;;;;;;22.77;9.02;;;;;;;;;;5115873;28;20059;-67
2021/06/16 04:11:47;;;;;;;29.40;9.57;;;;;;;;;;5115979;28;20063;-66
2021/06/16 04:14:13;;;;;;;20.35;8.38;;;;;;;;;;5115071;28;20523;-66
2021/06/16 04:16:42;;;;;;;21.42;7.97;;;;;;;;;;5115894;28;20028;-66
2021/06/16 04:19:07;;;;;;;22.90;9.35;;;;;;;;;;5116093;28;20030;-66
2021/06/16 04:21:33;;;;;;;21.25;8.32;;;;;;;;;;5115737;28;20019;-66
2021/06/16 04:23:58;;;;;;;26.55;8.57;;;;;;;;;;5115695;28;20103;-66
2021/06/16 04:26:24;;;;;;;22.98;8.80;;;;;;;;;;5115414;28;20119;-67
2021/06/16 04:28:49;;;;;;;22.25;8.70;;;;;;;;;;5114170;28;20028;-67
2021/06/16 04:31:15;;;;;;;24.58;8.98;;;;;;;;;;5116038;28;20118;-67
2021/06/16 04:33:40;;;;;;;27.55;9.68;;;;;;;;;;5115379;28;20035;-66
2021/06/16 04:36:06;;;;;;;22.85;7.90;;;;;;;;;;5115550;28;20076;-66
2021/06/16 04:38:31;;;;;;;22.63;8.77;;;;;;;;;;5115984;28;20032;-66
2021/06/16 04:40:57;;;;;;;23.00;8.27;;;;;;;;;;5115281;28;20173;-67
2021/06/16 04:43:22;;;;;;;21.85;8.15;;;;;;;;;;5115701;28;20072;-67
2021/06/16 04:45:47;;;;;;;22.27;7.95;;;;;;;;;;5114943;28;20464;-66
2021/06/16 04:48:13;;;;;;;19.25;7.63;;;;;;;;;;5115086;28;20046;-66
2021/06/16 04:50:38;;;;;;;28.15;7.55;;;;;;;;;;5115330;28;20038;-66
2021/06/16 04:53:03;;;;;;;17.38;6.72;;;;;;;;;;5115133;28;20031;-66
2021/06/16 04:55:29;;;;;;;14.20;5.38;;;;;;;;;;5115217;28;20028;-67
2021/06/16 04:57:54;;;;;;;12.48;5.10;;;;;;;;;;5115207;28;20444;-67
2021/06/16 05:00:22;;;;;;;7.40;3.90;;;;;;;;;;5115086;28;20034;-67
2021/06/16 05:02:47;;;;;;;9.93;3.90;;;;;;;;;;5114857;28;20071;-67
2021/06/16 05:05:12;;;;;;;10.48;3.80;;;;;;;;;;5115465;28;20023;-67
2021/06/16 05:07:38;;;;;;;7.60;3.10;;;;;;;;;;5115177;28;20043;-67
2021/06/16 05:10:04;;;;;;;12.10;5.07;;;;;;;;;;5114641;28;20031;-67
2021/06/16 05:12:29;;;;;;;6.53;3.03;;;;;;;;;;5114370;28;20019;-66
2021/06/16 05:14:55;;;;;;;6.25;2.90;;;;;;;;;;5114174;28;20027;-67
2021/06/16 05:17:21;;;;;;;8.00;2.40;;;;;;;;;;5107920;28;20043;-68
2021/06/16 05:19:46;;;;;;;5.18;2.72;;;;;;;;;;5111547;28;20104;-67
2021/06/16 05:22:13;;;;;;;5.95;2.83;;;;;;;;;;5114446;28;20042;-67
2021/06/16 05:24:39;;;;;;;6.78;2.53;;;;;;;;;;5114382;28;20122;-67
2021/06/16 05:27:04;;;;;;;6.80;2.97;;;;;;;;;;5113840;28;20115;-67
2021/06/16 05:29:30;;;;;;;6.78;2.78;;;;;;;;;;5114704;28;20030;-67
2021/06/16 05:31:55;;;;;;;4.82;3.17;;;;;;;;;;5114428;28;20027;-66
2021/06/16 05:34:20;;;;;;;6.35;3.20;;;;;;;;;;5114292;28;20076;-68
2021/06/16 05:36:46;;;;;;;6.00;2.20;;;;;;;;;;5114175;28;20044;-67
2021/06/16 05:39:11;;;;;;;4.75;2.70;;;;;;;;;;5114268;28;20053;-67
2021/06/16 05:41:36;;;;;;;3.33;2.10;;;;;;;;;;5113905;28;20462;-67
2021/06/16 05:44:02;;;;;;;4.72;2.53;;;;;;;;;;5113527;28;20028;-67
2021/06/16 05:46:27;;;;;;;4.53;2.88;;;;;;;;;;5096186;28;20035;-68
2021/06/16 05:48:52;;;;;;;3.47;2.38;;;;;;;;;;5113595;28;20098;-67
2021/06/16 05:51:17;;;;;;;5.63;2.60;;;;;;;;;;5113919;28;20032;-68
2021/06/16 05:53:43;;;;;;;5.32;2.35;;;;;;;;;;5114243;28;20633;-66
2021/06/16 05:56:08;;;;;;;4.22;2.30;;;;;;;;;;5114129;28;20098;-66
2021/06/16 05:58:33;;;;;;;5.28;2.15;;;;;;;;;;5113475;28;20047;-66
2021/06/16 06:00:59;;;;;;;4.18;2.22;;;;;;;;;;5111550;28;20467;-65
2021/06/16 06:03:24;;;;;;;4.95;2.22;;;;;;;;;;5103565;28;20099;-66
2021/06/16 06:05:49;;;;;;;3.65;2.05;;;;;;;;;;5104669;28;20027;-66
2021/06/16 06:08:14;;;;;;;6.22;2.10;;;;;;;;;;5106022;28;20035;-66
2021/06/16 06:10:40;;;;;;;6.25;2.60;;;;;;;;;;5112786;28;20514;-66
2021/06/16 06:13:05;;;;;;;3.78;2.40;;;;;;;;;;5113608;28;20039;-66
2021/06/16 06:15:30;;;;;;;6.30;2.92;;;;;;;;;;5110903;28;20034;-66
2021/06/16 06:17:56;;;;;;;4.43;2.28;;;;;;;;;;5107749;28;20031;-66
2021/06/16 06:20:21;;;;;;;4.85;2.40;;;;;;;;;;5113219;28;20028;-67
2021/06/16 06:22:46;;;;;;;5.60;2.75;;;;;;;;;;5113502;28;20112;-66
2021/06/16 06:25:12;;;;;;;5.82;2.25;;;;;;;;;;5113450;28;20022;-66
2021/06/16 06:27:38;;;;;;;5.97;2.35;;;;;;;;;;5113286;28;20071;-67
2021/06/16 06:30:04;;;;;;;9.45;2.92;;;;;;;;;;5113269;28;20085;-67
2021/06/16 06:32:29;;;;;;;8.18;2.75;;;;;;;;;;5094968;28;20020;-66
2021/06/16 06:34:56;;;;;;;5.18;2.75;;;;;;;;;;5111916;28;20020;-66
2021/06/16 06:37:21;;;;;;;10.32;2.67;;;;;;;;;;5112338;28;20028;-66
2021/06/16 06:39:49;;;;;;;7.60;3.05;;;;;;;;;;5113381;28;20098;-68
2021/06/16 06:42:15;;;;;;;5.75;2.70;;;;;;;;;;5113142;28;20032;-68
2021/06/16 06:44:41;;;;;;;8.40;3.00;;;;;;;;;;5112821;28;20031;-67
2021/06/16 06:47:06;;;;;;;10.30;3.17;;;;;;;;;;5112517;28;20043;-67
2021/06/16 06:49:31;;;;;;;16.70;3.40;;;;;;;;;;5113104;28;20305;-67
2021/06/16 06:51:56;;;;;;;6.25;2.55;;;;;;;;;;5114926;28;20115;-67
2021/06/16 06:54:22;;;;;;;6.25;2.60;;;;;;;;;;5117739;28;20020;-67
2021/06/16 06:56:47;;;;;;;7.20;2.80;;;;;;;;;;5117215;28;20157;-67
2021/06/16 06:59:12;;;;;;;8.00;3.27;;;;;;;;;;5117375;28;20035;-67
2021/06/16 07:01:38;;;;;;;9.90;2.57;;;;;;;;;;5116778;28;20304;-67
2021/06/16 07:04:03;;;;;;;12.00;3.58;;;;;;;;;;5116625;28;20256;-67
2021/06/16 07:06:29;;;;;;;13.77;2.92;;;;;;;;;;5116600;28;20494;-67
2021/06/16 07:08:55;;;;;;;8.35;3.33;;;;;;;;;;5115520;28;20088;-68
2021/06/16 07:11:20;;;;;;;9.13;3.33;;;;;;;;;;5117154;28;20055;-67
2021/06/16 07:13:45;;;;;;;8.60;3.17;;;;;;;;;;5116284;28;20036;-66
2021/06/16 07:16:11;;;;;;;8.23;2.87;;;;;;;;;;5116986;28;20023;-67
2021/06/16 07:18:36;;;;;;;6.88;3.45;;;;;;;;;;5116827;28;20264;-68
2021/06/16 07:21:02;;;;;;;8.20;3.45;;;;;;;;;;5117133;28;20063;-67
2021/06/16 07:23:27;;;;;;;5.78;2.33;;;;;;;;;;5117165;28;20026;-67
2021/06/16 07:25:52;;;;;;;7.57;2.50;;;;;;;;;;5116835;28;20391;-68
2021/06/16 07:28:17;;;;;;;11.57;3.03;;;;;;;;;;5111741;28;20134;-64
2021/06/16 07:30:43;;;;;;;9.57;3.00;;;;;;;;;;5110654;28;20251;-68
2021/06/16 07:33:09;;;;;;;10.70;3.33;;;;;;;;;;5115480;28;20027;-68
2021/06/16 07:35:34;;;;;;;10.93;2.97;;;;;;;;;;5108782;28;20271;-67
2021/06/16 07:37:59;;;;;;;10.30;3.43;;;;;;;;;;5114981;28;20012;-67
2021/06/16 07:40:25;;;;;;;9.87;3.03;;;;;;;;;;5115118;28;20363;-67
2021/06/16 07:42:50;;;;;;;9.93;3.30;;;;;;;;;;5115860;28;20268;-67
2021/06/16 07:45:15;;;;;;;8.43;3.37;;;;;;;;;;5109718;28;20023;-67
2021/06/16 07:47:41;;;;;;;12.07;3.50;;;;;;;;;;5113543;28;20302;-68
2021/06/16 07:50:07;;;;;;;7.15;3.00;;;;;;;;;;5112669;28;20486;-67
2021/06/16 07:52:32;;;;;;;11.30;3.55;;;;;;;;;;5112747;28;20186;-67
2021/06/16 07:54:57;;;;;;;10.50;3.05;;;;;;;;;;5094955;28;20119;-68
2021/06/16 07:57:22;;;;;;;11.05;3.20;;;;;;;;;;5105858;28;20036;-67
2021/06/16 07:59:49;;;;;;;9.73;3.63;;;;;;;;;;5113552;28;20030;-65
2021/06/16 08:02:14;;;;;;;8.02;3.47;;;;;;;;;;5113735;28;20260;-68
2021/06/16 08:04:41;;;;;;;10.23;3.65;;;;;;;;;;5113248;28;20519;-68
2021/06/16 08:07:10;;;;;;;18.00;6.38;;;;;;;;;;5107092;28;20452;-68
2021/06/16 08:09:36;;;;;;;8.77;4.25;;;;;;;;;;5113568;28;20110;-68
2021/06/16 08:12:03;;;;;;;9.93;4.13;;;;;;;;;;5112890;28;20130;-66
2021/06/16 08:14:28;;;;;;;10.50;4.30;;;;;;;;;;5112893;28;20027;-69
2021/06/16 08:16:54;;;;;;;10.63;4.40;;;;;;;;;;5113769;28;20038;-67
2021/06/16 08:19:19;;;;;;;8.23;4.10;;;;;;;;;;5113139;28;20027;-68
2021/06/16 08:21:44;;;;;;;9.57;4.43;;;;;;;;;;5112884;28;20240;-69
2021/06/16 08:24:10;;;;;;;8.30;4.30;;;;;;;;;;5112750;28;20024;-69
2021/06/16 08:26:36;;;;;;;10.90;4.05;;;;;;;;;;5112343;28;20039;-67
2021/06/16 08:29:01;;;;;;;15.40;4.13;;;;;;;;;;5112788;28;20019;-69
2021/06/16 08:31:26;;;;;;;9.73;4.07;;;;;;;;;;5112694;28;20110;-69
2021/06/16 08:33:52;;;;;;;10.60;4.15;;;;;;;;;;5112280;28;20403;-66
2021/06/16 08:36:17;;;;;;;6.47;3.20;;;;;;;;;;5112222;28;20055;-68
2021/06/16 08:38:42;;;;;;;10.27;4.05;;;;;;;;;;5112871;28;20046;-69
2021/06/16 08:41:08;;;;;;;9.70;4.10;;;;;;;;;;5113004;28;20079;-68
2021/06/16 08:43:41;;;;;;;11.00;3.92;;;;;;;;;;5113045;28;20248;-68
2021/06/16 08:46:08;;;;;;;10.07;3.70;;;;;;;;;;5112199;28;20031;-68
2021/06/16 08:48:35;;;;;;;8.52;3.30;;;;;;;;;;5112952;28;20036;-69
2021/06/16 08:51:00;;;;;;;7.38;3.53;;;;;;;;;;5112542;28;20380;-68
2021/06/16 08:53:25;;;;;;;8.00;4.03;;;;;;;;;;5112832;28;20036;-69
2021/06/16 08:55:51;;;;;;;8.93;3.70;;;;;;;;;;5110104;28;20092;-69
2021/06/16 08:58:16;;;;;;;8.93;3.83;;;;;;;;;;5101622;28;20062;-68
2021/06/16 09:00:42;;;;;;;8.57;3.92;;;;;;;;;;5112464;28;20035;-68
2021/06/16 09:03:08;;;;;;;10.05;3.10;;;;;;;;;;5111875;28;20380;-68
2021/06/16 09:05:39;;;;;;;8.07;3.53;;;;;;;;;;5112321;28;20509;-69
2021/06/16 09:08:15;;;;;;;9.10;3.60;;;;;;;;;;5112677;28;20061;-69
2021/06/16 09:10:44;;;;;;;10.90;3.92;;;;;;;;;;5112210;28;20051;-68
2021/06/16 09:13:10;;;;;;;8.40;3.10;;;;;;;;;;5111718;28;20476;-70
2021/06/16 09:15:38;;;;;;;8.27;3.42;;;;;;;;;;5110189;28;20039;-68
2021/06/16 09:18:12;;;;;;;11.15;4.20;;;;;;;;;;5091911;28;20036;-69
2021/06/16 09:20:43;;;;;;;12.65;3.35;;;;;;;;;;5091853;28;20028;-69
2021/06/16 09:23:11;;;;;;;8.23;3.67;;;;;;;;;;5102183;28;20526;-69
2021/06/16 09:25:36;;;;;;;7.75;3.60;;;;;;;;;;5111786;28;20032;-69
2021/06/16 09:28:02;;;;;;;7.43;3.50;;;;;;;;;;5108819;28;20432;-67
2021/06/16 09:30:29;;;;;;;8.95;3.63;;;;;;;;;;5111315;28;20043;-65
2021/06/16 09:32:57;;;;;;;9.48;3.20;;;;;;;;;;5111841;28;20027;-67
2021/06/16 09:35:24;;;;;;;11.40;3.25;;;;;;;;;;5111362;28;20020;-69
2021/06/16 09:37:49;;;;;;;7.55;2.95;;;;;;;;;;5110271;28;20077;-69
2021/06/16 09:40:24;;;;;;;7.03;2.78;;;;;;;;;;5111232;28;20108;-69
2021/06/16 09:42:56;;;;;;;8.68;3.03;;;;;;;;;;5110883;28;20023;-68
2021/06/16 09:45:22;;;;;;;8.73;3.60;;;;;;;;;;5110060;28;20115;-68
2021/06/16 09:47:47;;;;;;;7.68;2.63;;;;;;;;;;5106570;28;20383;-67
2021/06/16 09:50:12;;;;;;;7.63;3.20;;;;;;;;;;5111535;28;20031;-69
2021/06/16 09:52:47;;;;;;;6.43;2.50;;;;;;;;;;5111306;28;20795;-69
2021/06/16 09:55:12;;;;;;;7.80;2.65;;;;;;;;;;5110444;28;20271;-68
2021/06/16 09:57:38;;;;;;;8.37;3.10;;;;;;;;;;5110620;28;20545;-69
2021/06/16 10:00:08;;;;;;;5.75;2.70;;;;;;;;;;5097173;28;20298;-69
2021/06/16 10:02:33;;;;;;;7.25;2.33;;;;;;;;;;5089686;28;20133;-68
2021/06/16 10:04:59;;;;;;;9.70;2.85;;;;;;;;;;5107028;28;20126;-69
2021/06/16 10:07:26;;;;;;;9.23;2.50;;;;;;;;;;5109967;28;20024;-69
2021/06/16 10:09:51;;;;;;;7.30;2.67;;;;;;;;;;5110100;28;20353;-69
2021/06/16 10:12:17;;;;;;;10.02;2.80;;;;;;;;;;5109899;28;20059;-70
2021/06/16 10:14:43;;;;;;;10.05;2.53;;;;;;;;;;5109797;28;20452;-68
2021/06/16 10:17:09;;;;;;;10.18;3.30;;;;;;;;;;5111121;28;20033;-68
2021/06/16 10:19:35;;;;;;;7.60;2.92;;;;;;;;;;5109792;28;20073;-68
2021/06/16 10:22:01;;;;;;;5.97;2.65;;;;;;;;;;5110755;28;20019;-69
2021/06/16 10:24:27;;;;;;;10.38;2.60;;;;;;;;;;5110696;28;20016;-68
2021/06/16 10:26:55;;;;;;;10.93;2.88;;;;;;;;;;5109551;28;20045;-67
2021/06/16 10:29:21;;;;;;;6.18;2.65;;;;;;;;;;5109397;28;20022;-69
2021/06/16 10:31:46;;;;;;;7.78;2.90;;;;;;;;;;5110092;28;20019;-68
2021/06/16 10:34:12;;;;;;;9.00;2.53;;;;;;;;;;5110819;28;20034;-68
2021/06/16 10:36:39;;;;;;;5.80;2.50;;;;;;;;;;5092141;28;20126;-68
2021/06/16 10:39:06;;;;;;;6.90;2.45;;;;;;;;;;5090702;28;20131;-67
2021/06/16 10:41:40;;;;;;;5.82;2.20;;;;;;;;;;5095287;28;20024;-67
2021/06/16 10:44:05;;;;;;;;;;;;;;;;;;5108670;28;20027;-69
2021/06/16 10:46:52;;;;;;;5.82;2.08;;;;;;;;;;5109282;28;19969;-68
2021/06/16 10:49:33;;;;;;;6.03;2.08;;;;;;;;;;5109429;28;20526;-70
2021/06/16 10:51:59;;;;;;;5.15;1.77;;;;;;;;;;5110148;28;20035;-69
2021/06/16 10:54:25;;;;;;;6.15;2.05;;;;;;;;;;5110038;28;20028;-69
2021/06/16 10:56:54;;;;;;;5.75;1.90;;;;;;;;;;5110141;28;20028;-69
2021/06/16 10:59:38;;;;;;;5.97;1.48;;;;;;;;;;5108817;28;20093;-68
2021/06/16 11:02:04;;;;;;;7.50;1.73;;;;;;;;;;5109946;28;20085;-69
2021/06/16 11:04:30;;;;;;;4.65;1.17;;;;;;;;;;5110447;28;20024;-69
2021/06/16 11:06:56;;;;;;;3.42;1.23;;;;;;;;;;5109172;28;20023;-65
2021/06/16 11:09:40;;;;;;;4.00;1.23;;;;;;;;;;5109713;28;20084;-68
2021/06/16 11:12:06;;;;;;;2.65;0.98;;;;;;;;;;5109551;28;20063;-68
2021/06/16 11:14:35;;;;;;;3.80;1.00;;;;;;;;;;5109200;28;20057;-68
2021/06/16 11:17:00;;;;;;;5.78;1.30;;;;;;;;;;5109583;28;20034;-68
2021/06/16 11:19:34;;;;;;;3.20;1.10;;;;;;;;;;5109957;28;20375;-69
2021/06/16 11:22:04;;;;;;;4.65;1.35;;;;;;;;;;5108892;28;20063;-66
2021/06/16 11:24:48;;;;;;;6.47;1.60;;;;;;;;;;5091501;28;20023;-67
2021/06/16 11:27:33;;;;;;;3.58;1.40;;;;;;;;;;5104396;28;20166;-69
2021/06/16 11:30:01;;;;;;;3.10;0.98;;;;;;;;;;5088623;28;20047;-68
2021/06/16 11:32:27;;;;;;;3.65;1.00;;;;;;;;;;5089250;28;20061;-68
2021/06/16 11:34:53;;;;;;;1.75;0.80;;;;;;;;;;5092363;28;20020;-67
2021/06/16 11:37:36;;;;;;;4.72;1.38;;;;;;;;;;5110783;28;20082;-68
2021/06/16 11:40:05;;;;;;;3.47;1.08;;;;;;;;;;5113879;28;20038;-68
2021/06/16 11:42:30;;;;;;;2.63;1.08;;;;;;;;;;5114057;28;20474;-68
2021/06/16 11:44:55;;;;;;;4.53;1.05;;;;;;;;;;5113348;28;20035;-68
2021/06/16 11:47:21;;;;;;;4.65;1.27;;;;;;;;;;5092995;28;20095;-68
2021/06/16 11:49:46;;;;;;;4.22;1.33;;;;;;;;;;5092529;28;20043;-68
2021/06/16 11:52:18;;;;;;;3.95;1.10;;;;;;;;;;5092489;28;20063;-68
2021/06/16 11:54:43;;;;;;;7.03;1.35;;;;;;;;;;5093143;28;20039;-67
2021/06/16 11:57:09;;;;;;;9.45;1.60;;;;;;;;;;5095738;28;20479;-65
2021/06/16 11:59:34;;;;;;;3.60;1.30;;;;;;;;;;5113670;28;20035;-68
2021/06/16 12:02:03;;;;;;;2.72;0.98;;;;;;;;;;5112491;28;20027;-67
2021/06/16 12:04:41;;;;;;;3.97;1.08;;;;;;;;;;5113270;28;20032;-68
2021/06/16 12:07:07;;;;;;;3.30;1.10;;;;;;;;;;5113635;28;20032;-67
2021/06/16 12:09:45;;;;;;;2.03;0.85;;;;;;;;;;5112827;28;20128;-67
2021/06/16 12:12:10;;;;;;;4.28;1.23;;;;;;;;;;5113691;28;20055;-67
2021/06/16 12:14:35;;;;;;;5.03;1.10;;;;;;;;;;5112855;28;20034;-68
2021/06/16 12:17:03;;;;;;;3.28;1.10;;;;;;;;;;5112713;28;20042;-67
2021/06/16 12:19:32;;;;;;;7.60;1.50;;;;;;;;;;5112654;28;20028;-68
2021/06/16 12:21:59;;;;;;;5.47;1.50;;;;;;;;;;5106434;28;20074;-68
2021/06/16 12:24:26;;;;;;;7.10;1.85;;;;;;;;;;5091587;28;20028;-68
2021/06/16 12:27:09;;;;;;;9.30;1.83;;;;;;;;;;5092374;28;20077;-67
2021/06/16 12:29:36;;;;;;;7.20;1.67;;;;;;;;;;5101239;28;20035;-69
2021/06/16 12:32:05;;;;;;;4.47;1.70;;;;;;;;;;5109620;28;20031;-68
2021/06/16 12:37:08;;;;;;;5.40;1.90;;;;;;;;;;5106689;28;20040;-68
2021/06/16 12:39:33;;;;;;;5.13;1.50;;;;;;;;;;5106550;28;20031;-68
2021/06/16 12:42:05;;;;;;;5.43;1.90;;;;;;;;;;5110887;28;20020;-68
2021/06/16 12:44:41;;;;;;;9.02;2.75;;;;;;;;;;5094477;28;20031;-68
2021/06/16 12:47:08;;;;;;;4.97;1.60;;;;;;;;;;5107088;28;20043;-68
2021/06/16 12:49:36;;;;;;;8.02;1.90;;;;;;;;;;5108315;28;20031;-68
2021/06/16 12:52:05;;;;;;;6.57;1.88;;;;;;;;;;5112876;28;20031;-68
2021/06/16 12:54:34;;;;;;;6.15;1.73;;;;;;;;;;5111053;28;20103;-68
2021/06/16 12:56:59;;;;;;;5.45;1.98;;;;;;;;;;5112148;28;20455;-68
2021/06/16 12:59:32;;;;;;;11.32;2.65;;;;;;;;;;5113017;28;20096;-68
2021/06/16 13:01:57;;;;;;;8.63;1.48;;;;;;;;;;5113019;28;20027;-68
2021/06/16 13:04:42;;;;;;;6.40;1.52;;;;;;;;;;5112578;28;20026;-67
2021/06/16 13:07:07;;;;;;;5.63;1.60;;;;;;;;;;5112431;28;20116;-67
2021/06/16 13:09:32;;;;;;;4.57;1.33;;;;;;;;;;5112360;28;20460;-68
2021/06/16 13:12:04;;;;;;;5.68;1.70;;;;;;;;;;5112877;28;20055;-68
2021/06/16 13:14:35;;;;;;;7.30;1.65;;;;;;;;;;5112421;28;20524;-68
2021/06/16 13:17:08;;;;;;;5.00;1.23;;;;;;;;;;5111991;28;20365;-68
2021/06/16 13:19:33;;;;;;;5.88;1.27;;;;;;;;;;5111622;28;20035;-68
2021/06/16 13:22:00;;;;;;;8.88;1.77;;;;;;;;;;5111649;28;20535;-67
2021/06/16 13:24:25;;;;;;;4.65;1.17;;;;;;;;;;5110727;28;20027;-68
2021/06/16 13:26:58;;;;;;;4.32;1.30;;;;;;;;;;5111934;28;20096;-68
2021/06/16 13:29:27;;;;;;;6.55;1.00;;;;;;;;;;5091488;28;20081;-68
2021/06/16 13:31:52;;;;;;;7.97;1.02;;;;;;;;;;5098072;28;20028;-68
2021/06/16 13:34:17;;;;;;;4.50;1.10;;;;;;;;;;5110744;28;20043;-68
2021/06/16 13:36:42;;;;;;;2.47;0.90;;;;;;;;;;5111494;28;20016;-68
2021/06/16 13:39:08;;;;;;;2.95;1.02;;;;;;;;;;5111451;28;20069;-67
2021/06/16 13:41:34;;;;;;;3.38;0.98;;;;;;;;;;5111385;28;20498;-68
2021/06/16 13:43:59;;;;;;;1.77;0.90;;;;;;;;;;5110858;28;20517;-68
2021/06/16 13:46:25;;;;;;;2.58;0.93;;;;;;;;;;5110488;28;20030;-67
2021/06/16 13:48:51;;;;;;;3.45;1.38;;;;;;;;;;5110825;28;20395;-67
2021/06/16 13:51:17;;;;;;;7.10;0.95;;;;;;;;;;5111450;28;20027;-69
2021/06/16 13:53:42;;;;;;;3.70;0.70;;;;;;;;;;5110360;28;20034;-68
2021/06/16 13:56:08;;;;;;;4.70;0.70;;;;;;;;;;5103242;28;20118;-66
2021/06/16 13:58:34;;;;;;;1.95;0.90;;;;;;;;;;5108294;28;20493;-68
2021/06/16 14:00:59;;;;;;;1.27;0.60;;;;;;;;;;5110008;28;20031;-67
2021/06/16 14:03:27;;;;;;;1.67;0.70;;;;;;;;;;5111335;28;20035;-68
2021/06/16 14:05:52;;;;;;;1.27;0.60;;;;;;;;;;5110926;28;20028;-66
2021/06/16 14:08:17;;;;;;;2.05;0.95;;;;;;;;;;5105633;28;20034;-68
2021/06/16 14:10:43;;;;;;;1.50;0.70;;;;;;;;;;5110677;28;20051;-68
2021/06/16 14:13:08;;;;;;;0.85;0.65;;;;;;;;;;5110647;28;20061;-67
2021/06/16 14:15:34;;;;;;;1.70;0.93;;;;;;;;;;5109847;28;20027;-69
2021/06/16 14:17:59;;;;;;;1.55;0.70;;;;;;;;;;5109294;28;20553;-66
2021/06/16 14:20:25;;;;;;;0.95;0.60;;;;;;;;;;5110451;28;20019;-68
2021/06/16 14:22:50;;;;;;;1.92;0.75;;;;;;;;;;5110748;28;20490;-68
2021/06/16 14:25:16;;;;;;;1.48;0.70;;;;;;;;;;5109569;28;20551;-67
2021/06/16 14:27:42;;;;;;;2.08;0.70;;;;;;;;;;5109955;28;20028;-68
2021/06/16 14:30:09;;;;;;;1.42;0.40;;;;;;;;;;5107200;28;20072;-67
2021/06/16 14:32:35;;;;;;;1.95;0.38;;;;;;;;;;5109868;28;20156;-67
2021/06/16 14:35:00;;;;;;;0.93;0.55;;;;;;;;;;5105533;28;20012;-68
2021/06/16 14:37:25;;;;;;;1.38;0.63;;;;;;;;;;5104905;28;20043;-68
2021/06/16 14:39:51;;;;;;;2.97;0.70;;;;;;;;;;5109006;28;20039;-68